Aérodrome :
LOGIN :

S'inscrire | Disclaimer

   EN    FR    IT 

 










Légende :    VFR   VFR Marginal   IFR   IFR Intensif   IFR Très Intensif
Visi : 
Plafond : 
>= 8 km
>= 3000ft
5 à 8 km
1000 à 3000 ft
1500m à 5 km
500 à 1000 ft
800 à 1500m
200 à 500 ft
< 800m
< 200 ft
Symboles :   Orages  Brouillard  Fortes neiges  Fortes précipitations  Vent > 20 kt
SIGMETs :   Divers  Orages  Givrage  Turbulence  Onde Orograph.  Cendres Volcan.






- Altitude de l'aérodrome : 13 ft
- Code IATA : OST


EBOS - Oostend bruges Int.

DERNIER METAR :
  • 021020Z 28010KT 9999 FEW020 09/04 Q1016 NOSIG

METARs EXPIRÉS :
  • 020950Z 28009KT 9999 FEW020 SCT048 09/05 Q1016 NOSIG
  • 020920Z 28010KT 9999 FEW018 BKN048 08/04 Q1016 NOSIG
  • 020850Z 29009KT 9999 FEW018 BKN048 08/04 Q1016 NOSIG
  • 020820Z 29010KT 9999 FEW018 BKN048 08/04 Q1016 NOSIG
  • 020750Z 29008KT 9999 FEW018 BKN048 08/04 Q1016 NOSIG

TAF TAF EBOS
Valide du 02 à 06h jusqu'au 03 à 12h UTC


020510Z 0206/0312 21004KT 9999 FEW020 SCT045
BECMG 0208/0210 27014KT
PROB30
TEMPO 0218/0222 4500 SHRA RA BKN014
BECMG 0222/0224 33012KT



MET'MAP, la Météo Aéronautique d'un coup d'oeil ! - Copyright ORBIFLY Décembre 2007 - Disclaimer

ORBIFLY MET'MAP TEAM :

Programmation & Développement : Alexandra Zaïnal
Sur une idée originale de : Baudouin d'Aumeries
Assistance à la programmation : Marc-Olivier Méhu
Soutien technique & logistique : Manuel Goepfert

Contact : metmap@orbifly.com




SOURCES & CREDITS :

   NOAA